Time;durP1;ratioP1;P1;durP2;ratioP2;P2;SDS_P1;SDS_P2;PMS_P1;PMS_P2;Temp;Humidity;BMP_temperature;BMP_pressure;BME280_temperature;BME280_humidity;BME280_pressure;Samples;Min_cycle;Max_cycle;Signal;HPM_P1;HPM_P2
2023/01/01 00:00:07;;;;;;;63.88;40.70;;;13.70;99.90;;;;;;5036630;28;20045;-75
2023/01/01 00:02:33;;;;;;;50.90;34.90;;;13.60;99.90;;;;;;5036545;28;20045;-74
2023/01/01 00:04:59;;;;;;;73.18;48.47;;;13.60;99.90;;;;;;5034627;28;20064;-75
2023/01/01 00:07:24;;;;;;;41.90;29.05;;;13.40;99.90;;;;;;5037581;28;20029;-74
2023/01/01 00:12:34;;;;;;;39.58;23.77;;;13.40;99.90;;;;;;5037648;28;20049;-78
2023/01/01 00:15:00;;;;;;;94.13;72.38;;;13.20;99.90;;;;;;5037357;28;20407;-76
2023/01/01 00:17:27;;;;;;;43.95;28.35;;;13.20;99.90;;;;;;5034825;28;20033;-76
2023/01/01 00:19:53;;;;;;;114.85;61.20;;;13.20;99.90;;;;;;5037141;28;20059;-77
2023/01/01 00:22:18;;;;;;;46.35;32.05;;;13.10;99.90;;;;;;5046616;28;20499;-77
2023/01/01 00:24:44;;;;;;;69.05;50.50;;;13.00;99.90;;;;;;5056364;28;20124;-76
2023/01/01 00:27:09;;;;;;;57.15;37.72;;;13.10;99.90;;;;;;5054698;28;20045;-76
2023/01/01 00:29:35;;;;;;;40.15;28.63;;;13.10;99.90;;;;;;5038264;28;20041;-76
2023/01/01 00:32:00;;;;;;;50.15;33.85;;;13.00;99.90;;;;;;5054317;28;20044;-76
2023/01/01 00:34:26;;;;;;;80.57;57.55;;;12.90;99.90;;;;;;5054286;28;20044;-76
2023/01/01 00:36:51;;;;;;;120.97;100.72;;;12.90;99.90;;;;;;5054502;28;20120;-76
2023/01/01 00:39:17;;;;;;;174.85;134.10;;;12.90;99.90;;;;;;5054391;28;20033;-76
2023/01/01 00:41:43;;;;;;;57.53;43.83;;;12.90;99.90;;;;;;5054561;28;20036;-76
2023/01/01 00:44:08;;;;;;;51.42;32.97;;;13.00;99.90;;;;;;5053885;28;20537;-76
2023/01/01 00:46:34;;;;;;;41.67;27.17;;;12.90;99.90;;;;;;5054833;28;20399;-75
2023/01/01 00:49:00;;;;;;;62.83;46.17;;;12.90;99.90;;;;;;5055251;28;20487;-75
2023/01/01 00:51:25;;;;;;;49.72;33.95;;;12.90;99.90;;;;;;5054558;28;20076;-76
2023/01/01 00:53:51;;;;;;;80.55;56.10;;;12.90;99.90;;;;;;5053625;28;20499;-75
2023/01/01 00:56:16;;;;;;;54.15;39.25;;;13.00;99.90;;;;;;5053857;28;20072;-77
2023/01/01 00:58:42;;;;;;;49.70;36.17;;;13.00;99.90;;;;;;5053995;28;20132;-77
2023/01/01 01:01:07;;;;;;;58.78;43.58;;;13.00;99.90;;;;;;5053708;28;20037;-77
2023/01/01 01:03:33;;;;;;;36.92;24.17;;;13.00;99.90;;;;;;5053324;28;20079;-77
2023/01/01 01:06:08;;;;;;;42.20;27.55;;;13.00;99.90;;;;;;5053978;28;20033;-76
2023/01/01 01:08:36;;;;;;;53.20;35.28;;;13.10;99.90;;;;;;5054482;28;20510;-76
2023/01/01 01:11:17;;;;;;;41.72;26.38;;;13.00;99.90;;;;;;5037961;28;20110;-78
2023/01/01 01:13:45;;;;;;;44.08;32.13;;;13.10;99.90;;;;;;5053809;28;20517;-77
2023/01/01 01:16:20;;;;;;;39.95;26.42;;;13.00;99.90;;;;;;5037511;28;20064;-78
2023/01/01 01:18:46;;;;;;;44.63;27.40;;;13.00;99.90;;;;;;5054097;28;20041;-78
2023/01/01 01:21:17;;;;;;;53.25;32.80;;;13.00;99.90;;;;;;5038175;28;20577;-78
2023/01/01 01:23:42;;;;;;;42.90;24.60;;;13.00;99.90;;;;;;5036650;28;20041;-77
2023/01/01 01:26:23;;;;;;;35.65;22.80;;;13.20;99.90;;;;;;5036840;28;20059;-77
2023/01/01 01:28:51;;;;;;;39.40;24.80;;;13.10;99.90;;;;;;5037128;28;20045;-78
2023/01/01 01:31:19;;;;;;;45.28;27.50;;;13.20;99.90;;;;;;5054632;28;20041;-78
2023/01/01 01:33:46;;;;;;;42.50;26.70;;;13.10;99.90;;;;;;5053899;28;20036;-77
2023/01/01 01:36:12;;;;;;;40.17;29.08;;;13.20;99.90;;;;;;5037641;28;20131;-78
2023/01/01 01:38:38;;;;;;;48.05;27.80;;;13.10;99.90;;;;;;5052805;28;20040;-77
2023/01/01 01:41:04;;;;;;;40.22;26.30;;;13.10;99.90;;;;;;5036242;28;20455;-78
2023/01/01 01:43:32;;;;;;;48.58;30.25;;;13.10;99.90;;;;;;5035887;28;20124;-79
2023/01/01 01:46:03;;;;;;;47.97;30.48;;;13.10;99.90;;;;;;5054002;28;20037;-77
2023/01/01 01:48:34;;;;;;;44.80;30.45;;;13.00;99.90;;;;;;5037153;28;20041;-78
2023/01/01 01:51:00;;;;;;;48.95;32.20;;;12.90;99.90;;;;;;5037315;28;20049;-78
2023/01/01 01:53:29;;;;;;;46.90;35.00;;;13.00;99.90;;;;;;5053287;28;20037;-78
2023/01/01 01:55:58;;;;;;;62.45;42.97;;;13.00;99.90;;;;;;5052295;28;20040;-78
2023/01/01 01:58:25;;;;;;;57.65;40.42;;;12.80;99.90;;;;;;5036229;28;20091;-78
2023/01/01 02:00:50;;;;;;;56.30;37.60;;;12.80;99.90;;;;;;5053469;28;20131;-78
2023/01/01 02:03:28;;;;;;;55.20;36.95;;;12.70;99.90;;;;;;5053015;28;20068;-78
2023/01/01 02:05:54;;;;;;;46.35;33.17;;;12.80;99.90;;;;;;5036673;28;20422;-78
2023/01/01 02:08:20;;;;;;;61.67;36.92;;;12.60;99.90;;;;;;5054317;28;20041;-78
2023/01/01 02:10:46;;;;;;;57.58;38.00;;;12.60;99.90;;;;;;5053552;28;20044;-78
2023/01/01 02:13:12;;;;;;;51.60;35.28;;;12.60;99.90;;;;;;5036548;28;20425;-78
2023/01/01 02:16:09;;;;;;;59.30;40.97;;;12.70;99.90;;;;;;5052915;28;20041;-78
2023/01/01 02:18:40;;;;;;;51.28;34.47;;;12.70;99.90;;;;;;5053073;28;20182;-78
2023/01/01 02:21:13;;;;;;;55.45;36.13;;;12.50;99.90;;;;;;5053370;28;20052;-78
2023/01/01 02:23:48;;;;;;;55.38;35.33;;;12.70;99.90;;;;;;5035953;28;20032;-78
2023/01/01 02:26:39;;;;;;;54.97;36.13;;;12.50;99.90;;;;;;5053418;28;20045;-78
2023/01/01 02:29:15;;;;;;;60.92;38.42;;;12.50;99.90;;;;;;5052349;28;20742;-78
2023/01/01 02:31:47;;;;;;;52.22;32.45;;;12.50;99.90;;;;;;5036080;28;20124;-78
2023/01/01 02:34:16;;;;;;;46.13;31.17;;;12.50;99.90;;;;;;5051829;28;20730;-79
2023/01/01 02:36:49;;;;;;;48.15;30.77;;;12.60;99.90;;;;;;5053032;28;20526;-79
2023/01/01 02:39:18;;;;;;;46.38;29.25;;;12.60;99.90;;;;;;5035022;28;20510;-78
2023/01/01 02:41:48;;;;;;;42.47;26.40;;;12.70;99.90;;;;;;5051830;28;20119;-78
2023/01/01 02:44:14;;;;;;;39.90;26.63;;;12.60;99.90;;;;;;5051752;28;20037;-78
2023/01/01 02:46:40;;;;;;;39.65;24.83;;;12.70;99.90;;;;;;5051575;28;20033;-78
2023/01/01 02:49:05;;;;;;;40.20;27.58;;;12.80;99.90;;;;;;5051963;28;20070;-78
2023/01/01 02:52:13;;;;;;;37.45;23.83;;;12.70;99.90;;;;;;5051769;28;20179;-78
2023/01/01 02:54:58;;;;;;;36.60;22.83;;;12.80;99.90;;;;;;5052314;28;20405;-77
2023/01/01 02:57:37;;;;;;;31.80;21.92;;;12.80;99.90;;;;;;5051305;28;20517;-77
2023/01/01 03:00:27;;;;;;;29.33;19.45;;;12.80;99.90;;;;;;5051123;28;20045;-78
2023/01/01 03:03:11;;;;;;;34.70;19.88;;;12.80;99.90;;;;;;5051101;28;20121;-78
2023/01/01 03:06:22;;;;;;;33.78;19.92;;;12.80;99.90;;;;;;5051593;28;20079;-78
2023/01/01 03:09:04;;;;;;;32.38;16.90;;;12.70;99.90;;;;;;5034859;28;20044;-77
2023/01/01 03:12:00;;;;;;;31.38;17.63;;;12.90;99.90;;;;;;5035047;28;20049;-78
2023/01/01 03:15:03;;;;;;;36.53;19.10;;;12.80;99.90;;;;;;5047345;28;20057;-78
2023/01/01 03:17:40;;;;;;;28.58;15.32;;;12.80;99.90;;;;;;5051304;28;20048;-78
2023/01/01 03:20:12;;;;;;;27.40;12.80;;;12.80;99.90;;;;;;5051162;28;20080;-78
2023/01/01 03:22:40;;;;;;;22.65;12.50;;;12.90;99.90;;;;;;5050956;28;20510;-78
2023/01/01 03:25:18;;;;;;;24.58;10.85;;;13.00;99.90;;;;;;5050878;28;20111;-78
2023/01/01 03:27:49;;;;;;;20.77;11.75;;;13.10;99.90;;;;;;5051493;28;20039;-78
2023/01/01 03:30:18;;;;;;;27.60;11.27;;;12.90;99.90;;;;;;5051426;28;20502;-78
2023/01/01 03:33:04;;;;;;;16.95;10.43;;;13.00;99.90;;;;;;5051532;28;20049;-78
2023/01/01 03:35:43;;;;;;;20.60;8.43;;;13.10;99.90;;;;;;5051331;28;20048;-78
2023/01/01 03:38:40;;;;;;;16.45;8.85;;;13.10;99.90;;;;;;5034622;28;20048;-78
2023/01/01 03:41:15;;;;;;;18.15;7.20;;;13.10;99.90;;;;;;5021300;28;20061;-78
2023/01/01 03:44:02;;;;;;;18.30;9.30;;;13.20;99.90;;;;;;5051907;28;20440;-79
2023/01/01 03:46:31;;;;;;;13.43;7.75;;;13.20;99.90;;;;;;5051029;28;20548;-78
2023/01/01 03:48:59;;;;;;;14.18;7.68;;;13.00;99.90;;;;;;5051861;28;20060;-78
2023/01/01 03:51:52;;;;;;;13.77;7.50;;;13.00;99.90;;;;;;5051611;28;20045;-78
2023/01/01 03:54:36;;;;;;;19.25;9.10;;;12.80;99.90;;;;;;5051427;28;20098;-78
2023/01/01 03:57:12;;;;;;;20.05;8.50;;;12.70;99.90;;;;;;5051536;28;20037;-78
2023/01/01 03:59:57;;;;;;;15.95;9.23;;;12.60;99.90;;;;;;5052602;28;20041;-79
2023/01/01 04:02:37;;;;;;;18.55;9.38;;;12.60;99.90;;;;;;5020364;28;20072;-78
2023/01/01 04:05:06;;;;;;;21.63;9.65;;;12.40;99.90;;;;;;5051714;28;20104;-78
2023/01/01 04:07:32;;;;;;;25.50;10.88;;;12.30;99.90;;;;;;5051097;28;20044;-78
2023/01/01 04:10:00;;;;;;;21.88;10.57;;;12.40;99.90;;;;;;5034892;28;20348;-78
2023/01/01 04:12:26;;;;;;;21.73;10.23;;;12.40;99.90;;;;;;5050629;28;20037;-78
2023/01/01 04:14:51;;;;;;;21.40;9.25;;;12.40;99.90;;;;;;5050774;28;20508;-78
2023/01/01 04:17:17;;;;;;;21.55;9.82;;;12.10;99.90;;;;;;5051468;28;20049;-78
2023/01/01 04:19:43;;;;;;;21.17;8.23;;;12.00;99.90;;;;;;5053299;28;20045;-78
2023/01/01 04:22:08;;;;;;;17.90;8.45;;;12.20;99.90;;;;;;5054653;28;20029;-78
2023/01/01 04:24:34;;;;;;;16.73;7.40;;;12.10;99.90;;;;;;5038295;28;20124;-78
2023/01/01 04:26:59;;;;;;;20.85;8.30;;;12.20;99.90;;;;;;5054761;28;20040;-78
2023/01/01 04:29:25;;;;;;;18.90;7.50;;;12.20;99.90;;;;;;5037832;28;20538;-78
2023/01/01 04:31:50;;;;;;;21.00;7.60;;;12.10;99.90;;;;;;5054863;28;20144;-78
2023/01/01 04:34:16;;;;;;;17.70;6.90;;;12.20;99.90;;;;;;5053887;28;20048;-78
2023/01/01 04:36:42;;;;;;;17.25;7.10;;;12.10;99.90;;;;;;5037743;28;20048;-78
2023/01/01 04:39:07;;;;;;;15.80;7.15;;;12.10;99.90;;;;;;5037457;28;20041;-78
2023/01/01 04:41:33;;;;;;;15.10;6.63;;;11.90;99.90;;;;;;5038866;28;20128;-78
2023/01/01 04:43:59;;;;;;;12.13;6.00;;;12.00;99.90;;;;;;5055533;28;20037;-78
2023/01/01 04:46:25;;;;;;;17.27;7.60;;;11.80;99.90;;;;;;5040518;28;20037;-78
2023/01/01 04:48:50;;;;;;;19.25;6.60;;;12.10;99.90;;;;;;5057320;28;20041;-78
2023/01/01 04:51:18;;;;;;;14.85;6.68;;;12.10;99.90;;;;;;5056127;28;20406;-78
2023/01/01 04:53:44;;;;;;;18.63;6.55;;;11.90;99.90;;;;;;5054889;23;20045;-79
2023/01/01 04:56:15;;;;;;;16.88;6.78;;;11.70;99.90;;;;;;5045043;28;20072;-80
2023/01/01 04:58:42;;;;;;;17.52;6.15;;;11.90;99.90;;;;;;5045075;28;20033;-79
2023/01/01 05:01:13;;;;;;;17.55;6.55;;;11.90;99.90;;;;;;5023930;28;20158;-80
2023/01/01 05:03:39;;;;;;;18.40;6.60;;;11.90;99.90;;;;;;5040622;28;20037;-80
2023/01/01 05:06:07;;;;;;;11.80;6.55;;;11.80;99.90;;;;;;5023591;28;20037;-80
2023/01/01 05:08:34;;;;;;;24.85;7.22;;;11.90;99.90;;;;;;5025322;28;20045;-80
2023/01/01 05:11:06;;;;;;;16.42;7.00;;;11.70;99.90;;;;;;5041864;28;20490;-80
2023/01/01 05:13:33;;;;;;;18.70;5.72;;;11.90;99.90;;;;;;5040348;28;20041;-80
2023/01/01 05:16:02;;;;;;;11.20;5.53;;;11.70;99.90;;;;;;5040725;28;20083;-80
2023/01/01 05:18:28;;;;;;;14.85;5.30;;;11.90;99.90;;;;;;5040697;28;20041;-80
2023/01/01 05:21:01;;;;;;;13.73;4.38;;;11.90;99.90;;;;;;5041415;28;20041;-81
2023/01/01 05:23:27;;;;;;;12.23;4.35;;;11.90;99.90;;;;;;5041299;28;20532;-81
2023/01/01 05:25:53;;;;;;;9.40;3.97;;;12.00;99.90;;;;;;5042003;28;20092;-80
2023/01/01 05:28:19;;;;;;;16.30;4.75;;;12.00;99.90;;;;;;5041279;28;20037;-80
2023/01/01 05:30:44;;;;;;;17.60;4.40;;;11.80;99.90;;;;;;5040520;28;20036;-80
2023/01/01 05:33:10;;;;;;;16.33;4.30;;;11.90;99.90;;;;;;5041390;28;20033;-80
2023/01/01 05:35:35;;;;;;;11.25;3.80;;;11.90;99.90;;;;;;5041723;28;20055;-80
2023/01/01 05:38:02;;;;;;;15.88;4.00;;;12.10;99.90;;;;;;5024986;28;20037;-80
2023/01/01 05:40:27;;;;;;;12.48;3.85;;;12.00;99.90;;;;;;5041143;28;20049;-80
2023/01/01 05:42:53;;;;;;;11.75;3.78;;;12.10;99.90;;;;;;5040576;28;20048;-80
2023/01/01 05:45:19;;;;;;;11.65;3.13;;;12.10;99.90;;;;;;5023880;28;20041;-81
2023/01/01 05:47:44;;;;;;;8.25;3.25;;;12.10;99.90;;;;;;5041419;28;20035;-80
2023/01/01 05:50:10;;;;;;;13.73;3.70;;;12.10;99.90;;;;;;5040980;28;20045;-80
2023/01/01 05:52:35;;;;;;;6.57;3.65;;;11.90;99.90;;;;;;5040592;28;20033;-80
2023/01/01 05:55:01;;;;;;;12.73;4.65;;;12.00;99.90;;;;;;5029722;28;20040;-80
2023/01/01 05:57:29;;;;;;;15.10;3.10;;;12.00;99.90;;;;;;5031421;28;20044;-80
2023/01/01 05:59:55;;;;;;;11.73;3.83;;;12.00;99.90;;;;;;5051104;28;20041;-80
2023/01/01 06:02:20;;;;;;;10.88;3.13;;;12.20;99.90;;;;;;5047835;28;20072;-80
2023/01/01 06:04:46;;;;;;;8.30;2.90;;;12.20;99.90;;;;;;5043746;28;20135;-80
2023/01/01 06:07:11;;;;;;;7.10;3.08;;;12.10;99.90;;;;;;5027374;28;20067;-81
2023/01/01 06:09:37;;;;;;;6.30;2.63;;;12.20;99.90;;;;;;5027347;28;20577;-80
2023/01/01 06:12:03;;;;;;;9.10;2.83;;;12.20;99.90;;;;;;5024446;28;20036;-80
2023/01/01 06:14:28;;;;;;;11.77;2.85;;;12.10;99.90;;;;;;5042562;28;20037;-80
2023/01/01 06:16:54;;;;;;;6.28;2.80;;;12.20;99.90;;;;;;5042155;28;20041;-80
2023/01/01 06:19:19;;;;;;;10.30;2.13;;;12.20;99.90;;;;;;5040426;28;20037;-81
2023/01/01 06:21:45;;;;;;;9.70;2.20;;;12.10;99.90;;;;;;5041835;28;20037;-80
2023/01/01 06:24:10;;;;;;;4.95;1.83;;;12.10;99.90;;;;;;5026035;28;20033;-80
2023/01/01 06:26:37;;;;;;;9.05;1.80;;;12.20;99.90;;;;;;5042834;28;20044;-80
2023/01/01 06:29:03;;;;;;;4.28;1.80;;;12.10;99.90;;;;;;5044026;28;20036;-80
2023/01/01 06:31:29;;;;;;;5.10;1.45;;;12.10;99.90;;;;;;5041917;28;20041;-80
2023/01/01 06:33:55;;;;;;;7.13;1.73;;;12.10;99.90;;;;;;5044196;28;20041;-81
2023/01/01 06:36:22;;;;;;;7.43;1.80;;;12.10;99.90;;;;;;5027678;28;20043;-80
2023/01/01 06:38:50;;;;;;;4.97;1.65;;;12.10;99.90;;;;;;5027129;28;20136;-80
2023/01/01 06:41:18;;;;;;;10.35;1.77;;;12.00;99.90;;;;;;5030884;28;20029;-80
2023/01/01 06:43:45;;;;;;;5.28;1.30;;;12.10;99.90;;;;;;5035986;28;20037;-80
2023/01/01 06:46:15;;;;;;;6.32;1.50;;;12.10;99.90;;;;;;5044683;28;20130;-80
2023/01/01 06:48:41;;;;;;;5.75;1.50;;;12.10;99.90;;;;;;5043914;28;20037;-80
2023/01/01 06:51:19;;;;;;;5.50;1.13;;;12.00;99.90;;;;;;5040954;28;20041;-80
2023/01/01 06:53:45;;;;;;;6.57;1.48;;;12.10;99.90;;;;;;5042508;28;20087;-80
2023/01/01 06:56:12;;;;;;;6.13;1.48;;;12.20;99.90;;;;;;5042661;28;20429;-80
2023/01/01 06:58:38;;;;;;;8.57;1.85;;;12.10;99.90;;;;;;5028997;28;20069;-80
2023/01/01 07:01:11;;;;;;;6.93;1.85;;;12.10;99.90;;;;;;5049404;28;20051;-80
2023/01/01 07:03:37;;;;;;;4.18;1.20;;;12.10;99.90;;;;;;5026195;28;20037;-80
2023/01/01 07:06:04;;;;;;;13.18;2.30;;;12.00;99.90;;;;;;5043167;28;20044;-81
2023/01/01 07:08:29;;;;;;;8.18;1.88;;;12.10;99.90;;;;;;5043745;28;20099;-80
2023/01/01 07:10:56;;;;;;;6.13;1.42;;;12.00;99.90;;;;;;5043784;28;20065;-81
2023/01/01 07:13:26;;;;;;;6.78;2.72;;;12.10;99.90;;;;;;5041590;28;20045;-80
2023/01/01 07:15:52;;;;;;;9.57;2.70;;;12.00;99.90;;;;;;5047968;28;20055;-80
2023/01/01 07:18:22;;;;;;;8.52;1.67;;;12.10;99.90;;;;;;5027684;28;20037;-80
2023/01/01 07:20:51;;;;;;;8.15;1.55;;;12.00;99.90;;;;;;5043928;28;20041;-80
2023/01/01 07:23:17;;;;;;;8.45;1.67;;;12.00;99.90;;;;;;5043256;28;20033;-80
2023/01/01 07:25:43;;;;;;;7.65;2.45;;;11.90;99.90;;;;;;5026236;28;20060;-80
2023/01/01 07:28:08;;;;;;;11.10;1.70;;;11.90;99.90;;;;;;5043053;28;20041;-81
2023/01/01 07:30:34;;;;;;;10.07;2.65;;;11.90;99.90;;;;;;5026465;28;20053;-80
2023/01/01 07:32:59;;;;;;;9.27;1.80;;;11.90;99.90;;;;;;5039310;28;20041;-80
2023/01/01 07:35:25;;;;;;;7.72;1.85;;;11.80;99.90;;;;;;5043111;28;20068;-80
2023/01/01 07:37:50;;;;;;;12.95;2.47;;;11.90;99.90;;;;;;5041958;28;20072;-80
2023/01/01 07:40:16;;;;;;;6.68;1.70;;;11.80;99.90;;;;;;5042189;28;20045;-81
2023/01/01 07:42:41;;;;;;;8.35;1.65;;;11.90;99.90;;;;;;5042194;28;20041;-81
2023/01/01 07:45:10;;;;;;;10.38;1.92;;;11.80;99.90;;;;;;5025341;28;20040;-80
2023/01/01 07:47:35;;;;;;;10.75;1.92;;;11.80;99.90;;;;;;5040546;28;20033;-80
2023/01/01 07:50:01;;;;;;;12.50;2.03;;;11.80;99.90;;;;;;5040015;28;20124;-80
2023/01/01 07:52:26;;;;;;;7.25;2.85;;;11.80;99.90;;;;;;5039469;28;20485;-80
2023/01/01 07:54:52;;;;;;;14.77;3.13;;;11.80;99.90;;;;;;5044124;28;20041;-80
2023/01/01 07:57:17;;;;;;;9.70;2.92;;;11.80;99.90;;;;;;5045005;28;20445;-80
2023/01/01 07:59:43;;;;;;;19.35;2.88;;;11.70;99.90;;;;;;5045262;28;20071;-80
2023/01/01 08:02:11;;;;;;;16.42;3.92;;;11.80;99.90;;;;;;5038053;28;20040;-81
2023/01/01 08:04:37;;;;;;;12.93;2.30;;;11.70;99.90;;;;;;5048147;28;20521;-80
2023/01/01 08:07:03;;;;;;;10.20;2.75;;;11.80;99.90;;;;;;5031829;28;20059;-80
2023/01/01 08:09:29;;;;;;;12.25;3.78;;;11.70;99.90;;;;;;5046344;28;20087;-80
2023/01/01 08:11:57;;;;;;;15.57;2.67;;;11.70;99.90;;;;;;5046421;28;20047;-80
2023/01/01 08:14:23;;;;;;;11.02;3.10;;;11.80;99.90;;;;;;5046075;28;20033;-80
2023/01/01 08:16:48;;;;;;;13.77;2.60;;;11.80;99.90;;;;;;5029312;28;20063;-80
2023/01/01 08:19:14;;;;;;;16.63;2.53;;;11.80;99.90;;;;;;5044968;28;20037;-81
2023/01/01 08:21:39;;;;;;;17.25;2.97;;;11.70;99.90;;;;;;5045420;28;20048;-80
2023/01/01 08:24:05;;;;;;;12.82;2.92;;;11.70;99.90;;;;;;5041564;28;20037;-80
2023/01/01 08:26:34;;;;;;;14.30;3.13;;;11.70;99.90;;;;;;5044141;28;20047;-80
2023/01/01 08:29:05;;;;;;;11.43;3.45;;;11.70;99.90;;;;;;5043802;28;20041;-81
2023/01/01 08:31:31;;;;;;;11.45;2.80;;;11.70;99.90;;;;;;5043947;28;20585;-80
2023/01/01 08:33:56;;;;;;;16.40;3.22;;;11.70;99.90;;;;;;5041053;28;20037;-80
2023/01/01 08:36:22;;;;;;;12.88;3.00;;;11.70;99.90;;;;;;5033343;28;20033;-81
2023/01/01 08:38:47;;;;;;;17.17;3.58;;;11.70;99.90;;;;;;5049362;28;20045;-81
2023/01/01 08:41:13;;;;;;;14.57;3.20;;;11.70;99.90;;;;;;5030543;28;20052;-80
2023/01/01 08:43:38;;;;;;;17.42;2.92;;;11.80;99.90;;;;;;5046430;28;20059;-80
2023/01/01 08:46:04;;;;;;;19.58;3.08;;;11.80;99.90;;;;;;5044575;28;20037;-80
2023/01/01 08:48:30;;;;;;;16.45;3.25;;;11.70;99.90;;;;;;5028694;28;20041;-81
2023/01/01 08:51:00;;;;;;;17.40;3.25;;;11.70;99.90;;;;;;5044539;28;20083;-81
2023/01/01 08:53:27;;;;;;;18.08;4.22;;;11.70;99.90;;;;;;5042420;28;20083;-80
2023/01/01 08:55:58;;;;;;;16.70;3.65;;;11.70;99.90;;;;;;5043667;28;20045;-80
2023/01/01 08:58:23;;;;;;;17.25;4.40;;;11.70;99.90;;;;;;5039529;28;20716;-80
2023/01/01 09:00:49;;;;;;;15.13;2.70;;;11.60;99.90;;;;;;5038146;28;20076;-80
2023/01/01 09:03:14;;;;;;;14.18;3.10;;;11.70;99.90;;;;;;5036042;28;20514;-80
2023/01/01 09:05:44;;;;;;;13.25;3.03;;;11.70;99.90;;;;;;5022541;28;20033;-80
2023/01/01 09:08:10;;;;;;;14.27;3.35;;;11.70;99.90;;;;;;5016884;28;20037;-80
2023/01/01 09:10:36;;;;;;;12.15;2.83;;;11.70;99.90;;;;;;5036528;28;20325;-82
2023/01/01 09:13:01;;;;;;;13.07;3.50;;;11.70;99.90;;;;;;5043027;28;20087;-82
2023/01/01 09:15:27;;;;;;;18.13;3.50;;;11.80;99.90;;;;;;5043948;28;20068;-81
2023/01/01 09:17:52;;;;;;;21.67;4.40;;;11.80;99.90;;;;;;5043659;28;20128;-81
2023/01/01 09:20:18;;;;;;;29.05;5.38;;;11.70;99.90;;;;;;5023404;28;20047;-81
2023/01/01 09:22:43;;;;;;;14.98;3.20;;;11.70;99.90;;;;;;5040292;28;20178;-80
2023/01/01 09:25:09;;;;;;;9.90;2.88;;;11.70;99.90;;;;;;5017848;28;20166;-80
2023/01/01 09:27:34;;;;;;;17.88;3.85;;;11.70;99.90;;;;;;5028867;28;20527;-80
2023/01/01 09:30:00;;;;;;;17.65;3.70;;;11.60;99.90;;;;;;5039833;28;20040;-80
2023/01/01 09:32:25;;;;;;;20.38;3.47;;;11.70;99.90;;;;;;5038910;28;20041;-80
2023/01/01 09:34:51;;;;;;;19.30;3.88;;;11.70;99.90;;;;;;5040184;28;20076;-80
2023/01/01 09:37:16;;;;;;;16.48;4.10;;;11.70;99.90;;;;;;5038966;28;20491;-79
2023/01/01 09:39:42;;;;;;;22.38;4.57;;;11.60;99.90;;;;;;5022384;28;20041;-79
2023/01/01 09:42:38;;;;;;;16.58;4.50;;;11.70;99.90;;;;;;5039600;28;20033;-81
2023/01/01 09:45:26;;;;;;;13.52;4.57;;;11.70;99.90;;;;;;5021031;28;20418;-78
2023/01/01 09:47:58;;;;;;;11.80;3.40;;;11.70;99.90;;;;;;5021390;28;20112;-80
2023/01/01 09:50:34;;;;;;;13.13;3.00;;;11.80;99.90;;;;;;5040838;28;20079;-80
2023/01/01 09:53:16;;;;;;;11.38;3.33;;;11.80;99.90;;;;;;5053857;28;20037;-83
2023/01/01 09:56:02;;;;;;;27.73;6.00;;;11.80;99.90;;;;;;5029430;28;20127;-81
2023/01/01 09:58:36;;;;;;;16.65;3.75;;;11.80;99.90;;;;;;5045701;28;20438;-81
2023/01/01 10:01:15;;;;;;;15.75;3.72;;;11.80;99.90;;;;;;5041293;28;20503;-79
2023/01/01 10:03:54;;;;;;;18.42;3.05;;;11.80;99.90;;;;;;5045257;28;20037;-83
2023/01/01 10:06:30;;;;;;;17.63;5.03;;;11.80;99.90;;;;;;5046950;28;20044;-79
2023/01/01 10:09:15;;;;;;;17.15;2.45;;;11.80;99.90;;;;;;5024439;28;20037;-80
2023/01/01 10:11:53;;;;;;;20.30;2.90;;;11.90;99.90;;;;;;5039641;28;20079;-80
2023/01/01 10:14:35;;;;;;;15.02;2.67;;;11.80;99.90;;;;;;5039968;28;20052;-81
2023/01/01 10:17:09;;;;;;;11.50;3.43;;;11.90;99.90;;;;;;5021762;28;20454;-78
2023/01/01 10:19:42;;;;;;;20.30;4.38;;;11.90;99.90;;;;;;5021611;28;20765;-80
2023/01/01 10:22:14;;;;;;;13.93;3.13;;;11.90;99.90;;;;;;5038906;28;20082;-80
2023/01/01 10:24:42;;;;;;;17.55;3.25;;;11.90;99.90;;;;;;5037718;28;20490;-78
2023/01/01 10:27:20;;;;;;;14.32;3.00;;;11.90;99.90;;;;;;5029734;28;20123;-79
2023/01/01 10:29:49;;;;;;;18.75;3.17;;;11.90;99.90;;;;;;5005500;28;20037;-80
2023/01/01 10:32:29;;;;;;;13.70;3.10;;;11.90;99.90;;;;;;5016398;28;20045;-77
2023/01/01 10:34:56;;;;;;;16.45;3.00;;;12.00;99.90;;;;;;5017043;28;20095;-79
2023/01/01 10:37:22;;;;;;;17.38;3.35;;;11.90;99.90;;;;;;5016157;28;20048;-79
2023/01/01 10:39:48;;;;;;;15.75;2.97;;;11.90;99.90;;;;;;5031196;28;20041;-79
2023/01/01 10:42:14;;;;;;;19.05;3.20;;;11.80;99.90;;;;;;5032750;28;20047;-78
2023/01/01 10:44:41;;;;;;;11.90;2.28;;;11.80;99.90;;;;;;5036651;28;20040;-81
2023/01/01 10:47:30;;;;;;;18.80;2.88;;;11.80;99.90;;;;;;5031765;28;20041;-79
2023/01/01 10:49:58;;;;;;;14.27;3.20;;;11.80;99.90;;;;;;5031672;28;20045;-79
2023/01/01 10:52:30;;;;;;;16.30;2.92;;;11.80;99.90;;;;;;5033507;28;20128;-79
2023/01/01 10:54:56;;;;;;;12.55;2.70;;;11.70;99.90;;;;;;5033696;28;20388;-81
2023/01/01 10:57:34;;;;;;;11.52;2.53;;;11.60;99.90;;;;;;5034246;28;20052;-82
2023/01/01 11:00:11;;;;;;;10.18;2.58;;;11.60;99.90;;;;;;5016718;28;20033;-80
2023/01/01 11:02:36;;;;;;;9.57;2.33;;;11.60;99.90;;;;;;5033587;28;20044;-81
2023/01/01 11:05:18;;;;;;;19.50;3.05;;;11.60;99.90;;;;;;5022521;28;20041;-80
2023/01/01 11:07:45;;;;;;;10.50;2.85;;;11.60;99.90;;;;;;5013877;28;20857;-84
2023/01/01 11:10:22;;;;;;;15.43;2.30;;;11.60;99.90;;;;;;5038507;28;20040;-83
2023/01/01 11:12:53;;;;;;;13.57;2.90;;;11.60;99.90;;;;;;5040965;28;20445;-84
2023/01/01 11:15:34;;;;;;;8.60;2.22;;;11.70;99.90;;;;;;5024430;28;20065;-81
2023/01/01 11:18:05;;;;;;;13.73;2.70;;;11.70;99.90;;;;;;5021536;28;20040;-80
2023/01/01 11:20:32;;;;;;;14.10;3.10;;;11.60;99.90;;;;;;5039867;28;20486;-83
2023/01/01 11:22:58;;;;;;;18.05;3.10;;;11.60;99.90;;;;;;5037614;28;20559;-83
2023/01/01 11:25:33;;;;;;;17.05;2.95;;;11.70;99.90;;;;;;5037407;28;20036;-82
2023/01/01 11:28:19;;;;;;;13.23;2.83;;;11.60;99.90;;;;;;5037819;28;20517;-82
2023/01/01 11:31:06;;;;;;;17.02;2.55;;;11.60;99.90;;;;;;5017612;28;20095;-82
2023/01/01 11:33:35;;;;;;;13.40;2.35;;;11.70;99.90;;;;;;5022907;28;20044;-82
2023/01/01 11:36:03;;;;;;;10.90;2.40;;;11.80;99.90;;;;;;5037421;28;20040;-83
2023/01/01 11:38:28;;;;;;;6.60;2.08;;;11.80;99.90;;;;;;5037383;28;20033;-85
2023/01/01 11:41:00;;;;;;;17.33;3.05;;;11.80;99.90;;;;;;5034911;28;20514;-84
2023/01/01 11:43:27;;;;;;;6.05;1.65;;;11.70;99.90;;;;;;5036556;28;20045;-86
2023/01/01 11:45:56;;;;;;;12.82;2.25;;;11.80;99.90;;;;;;5037921;28;20045;-83
2023/01/01 11:48:29;;;;;;;9.52;2.75;;;11.70;99.90;;;;;;5038684;28;20100;-83
2023/01/01 11:50:57;;;;;;;18.70;2.70;;;11.70;99.90;;;;;;5058151;28;20063;-82
2023/01/01 11:53:23;;;;;;;9.48;2.05;;;11.70;99.90;;;;;;5056420;28;20037;-80
2023/01/01 11:56:02;;;;;;;8.82;2.53;;;11.70;99.90;;;;;;5056480;28;20106;-81
2023/01/01 11:58:57;;;;;;;17.27;5.88;;;11.70;99.90;;;;;;5053764;28;20393;-82
2023/01/01 12:01:53;;;;;;;14.75;2.30;;;11.80;99.90;;;;;;5055500;28;20041;-81
2023/01/01 12:04:31;;;;;;;10.32;2.70;;;11.90;99.90;;;;;;5053213;28;20041;-81
2023/01/01 12:07:03;;;;;;;15.13;3.35;;;12.00;99.90;;;;;;5060843;28;20112;-80
2023/01/01 12:09:58;;;;;;;15.45;2.67;;;12.00;99.90;;;;;;5057001;28;20037;-81
2023/01/01 12:12:33;;;;;;;13.38;2.95;;;12.00;99.90;;;;;;5039478;28;20040;-83
2023/01/01 12:15:24;;;;;;;10.50;2.33;;;12.00;99.90;;;;;;5057388;28;20037;-81
2023/01/01 12:18:14;;;;;;;13.98;3.35;;;12.10;99.90;;;;;;5054805;28;20051;-84
2023/01/01 12:20:48;;;;;;;15.35;2.42;;;12.10;99.90;;;;;;5054416;28;20763;-83
2023/01/01 12:23:17;;;;;;;16.83;5.47;;;12.10;99.90;;;;;;5054210;28;20037;-79
2023/01/01 12:25:49;;;;;;;16.58;3.97;;;12.10;99.90;;;;;;5054046;28;20064;-85
2023/01/01 12:28:15;;;;;;;23.23;4.72;;;12.10;99.90;;;;;;5013091;28;20119;-83
2023/01/01 12:31:21;;;;;;;13.45;3.30;;;12.10;99.90;;;;;;5053750;28;20545;-83
2023/01/01 12:34:24;;;;;;;20.45;4.40;;;12.10;99.90;;;;;;5050539;28;20056;-81
2023/01/01 12:36:59;;;;;;;14.20;3.07;;;12.10;99.90;;;;;;5053672;28;20059;-81
2023/01/01 12:39:59;;;;;;;12.27;2.40;;;12.10;99.90;;;;;;5058092;28;20791;-80
2023/01/01 12:42:43;;;;;;;11.73;2.50;;;12.10;99.90;;;;;;5058467;28;20041;-82
2023/01/01 12:45:21;;;;;;;18.13;5.25;;;12.10;99.90;;;;;;5094330;22;20515;-74
2023/01/01 12:47:59;;;;;;;13.27;4.63;;;12.10;99.90;;;;;;5056516;28;20045;-74
2023/01/01 12:50:49;;;;;;;17.73;3.65;;;12.10;99.90;;;;;;5055713;28;20044;-74
2023/01/01 12:53:34;;;;;;;24.35;7.57;;;12.00;99.90;;;;;;5055100;28;20048;-76
2023/01/01 12:56:03;;;;;;;18.92;5.05;;;12.00;99.90;;;;;;5039110;28;20040;-77